Search for airport 
image banner adimage banner adimage banner ad
image banner ad

PS81 - Robert Packer Hospital

Located in Sayre, United States

ICAO - PS81, IATA -

Data provided by Airmate  

General information

Coordinates: N41°58'46" W76°31'14"
Elevation is 780 feet MSL.
Magnetic variation is -12° East
View others Airports in Pennsylvania

Operational data

Special qualification required
Current time UTC:
Current local time:
Weather at : KELM - Elmira/Corning Rgnl ( 37 km )
METAR: KELM 071253Z 08003KT 10SM FEW075 OVC120 08/03 A2993 RMK AO2 SLP138 T00780033
TAF: KELM 071120Z 0712/0812 00000KT P6SM BKN100 FM071900 VRB04KT 5SM -SHRA BR OVC040 FM072300 36005KT 4SM -SHRA BR OVC015 FM080100 35005KT 2SM -SHRA BR OVC007 FM080500 32004KT 2SM -SHRA BR OVC005
View NOTAMs / SUP AIP / TFR affecting this airport [VIEW]
Communications frequencies: [VIEW]

Runways:

Airport contact information

Address: Sayre United States

Satellite view of PS81